Time,TemperatureF,DewpointF,PressureIn,WindDirection,WindDirectionDegrees,WindSpeedMPH,WindSpeedGustMPH,Humidity,HourlyPrecipIn,Conditions,Clouds,dailyrainin,SoftwareType,DateUTC
2013-05-11 00:01:00,67.0,44.0,30.79,West,270,0.0,0.0,43,-99.99,,,-99.99,,2013-05-11 07:01:00,
2013-05-11 00:21:00,66.0,46.0,30.80,West,270,0.0,0.0,48,-99.99,,,-99.99,,2013-05-11 07:21:00,
2013-05-11 00:31:00,65.0,46.0,30.81,West,270,0.0,0.0,51,-99.99,,,-99.99,,2013-05-11 07:31:00,
2013-05-11 00:52:00,65.0,47.0,30.80,West,270,0.0,0.0,52,-99.99,,,-99.99,,2013-05-11 07:52:00,
2013-05-11 01:01:00,64.0,47.0,30.80,West,270,0.0,0.0,53,-99.99,,,-99.99,,2013-05-11 08:01:00,
2013-05-11 01:11:00,64.0,47.0,30.80,West,270,0.0,0.0,53,-99.99,,,-99.99,,2013-05-11 08:11:00,
2013-05-11 01:21:00,64.0,45.0,30.81,West,270,0.0,0.0,50,-99.99,,,-99.99,,2013-05-11 08:21:00,
2013-05-11 01:31:00,63.0,45.0,30.81,West,270,0.0,0.0,51,-99.99,,,-99.99,,2013-05-11 08:31:00,
2013-05-11 01:42:00,63.0,63.0,30.81,West,270,0.0,0.0,100,-99.99,,,-99.99,,2013-05-11 08:42:00,
2013-05-11 02:01:00,62.0,46.0,30.81,West,270,0.0,0.0,55,-99.99,,,-99.99,,2013-05-11 09:01:00,
2013-05-11 02:11:00,62.0,46.0,30.81,West,270,0.0,0.0,55,-99.99,,,-99.99,,2013-05-11 09:11:00,
2013-05-11 02:21:00,62.0,47.0,30.80,West,270,0.0,0.0,58,-99.99,,,-99.99,,2013-05-11 09:21:00,
2013-05-11 02:32:00,61.0,46.0,30.80,West,270,0.0,0.0,57,-99.99,,,-99.99,,2013-05-11 09:32:00,
2013-05-11 02:42:00,61.0,46.0,30.80,West,270,0.0,0.0,58,-99.99,,,-99.99,,2013-05-11 09:42:00,
2013-05-11 02:52:00,61.0,46.0,30.80,West,270,0.0,0.0,58,-99.99,,,-99.99,,2013-05-11 09:52:00,
2013-05-11 03:02:00,60.0,45.0,30.80,West,270,0.0,0.0,58,-99.99,,,-99.99,,2013-05-11 10:02:00,
2013-05-11 03:12:00,60.0,45.0,30.80,West,270,0.0,0.0,58,-99.99,,,-99.99,,2013-05-11 10:12:00,
2013-05-11 03:22:00,59.0,45.0,30.80,West,270,0.0,0.0,60,-99.99,,,-99.99,,2013-05-11 10:22:00,
2013-05-11 03:32:00,58.0,45.0,30.79,West,270,0.0,0.0,61,-99.99,,,-99.99,,2013-05-11 10:32:00,
2013-05-11 03:42:00,58.0,45.0,30.79,West,270,0.0,0.0,62,-99.99,,,-99.99,,2013-05-11 10:42:00,
2013-05-11 03:52:00,58.0,45.0,30.79,West,270,0.0,0.0,62,-99.99,,,-99.99,,2013-05-11 10:52:00,
2013-05-11 04:02:00,58.0,45.0,30.79,West,270,0.0,0.0,62,-99.99,,,-99.99,,2013-05-11 11:02:00,
2013-05-11 04:11:00,58.0,45.0,30.79,West,270,0.0,0.0,62,-99.99,,,-99.99,,2013-05-11 11:11:00,
2013-05-11 04:21:00,57.0,45.0,30.79,West,270,0.0,0.0,64,-99.99,,,-99.99,,2013-05-11 11:21:00,
2013-05-11 04:31:00,57.0,45.0,30.79,West,270,0.0,0.0,64,-99.99,,,-99.99,,2013-05-11 11:31:00,
2013-05-11 04:42:00,56.0,43.0,30.78,West,270,0.0,0.0,62,-99.99,,,-99.99,,2013-05-11 11:42:00,
2013-05-11 04:51:00,56.0,43.0,30.78,West,270,0.0,0.0,62,-99.99,,,-99.99,,2013-05-11 11:51:00,
2013-05-11 05:01:00,56.0,42.0,30.78,West,270,0.0,0.0,59,-99.99,,,-99.99,,2013-05-11 12:01:00,
2013-05-11 05:11:00,56.0,42.0,30.78,West,270,0.0,0.0,59,-99.99,,,-99.99,,2013-05-11 12:11:00,
2013-05-11 05:21:00,55.0,41.0,30.78,West,270,0.0,0.0,58,-99.99,,,-99.99,,2013-05-11 12:21:00,
2013-05-11 05:31:00,55.0,41.0,30.78,West,270,0.0,0.0,58,-99.99,,,-99.99,,2013-05-11 12:31:00,
2013-05-11 05:41:00,55.0,39.0,30.77,West,270,0.0,0.0,54,-99.99,,,-99.99,,2013-05-11 12:41:00,
2013-05-11 05:51:00,55.0,39.0,30.77,West,270,0.0,0.0,54,-99.99,,,-99.99,,2013-05-11 12:51:00,
2013-05-11 06:01:00,56.0,39.0,30.77,West,270,0.0,0.0,53,-99.99,,,-99.99,,2013-05-11 13:01:00,
2013-05-11 06:11:00,56.0,39.0,30.77,West,270,0.0,0.0,53,-99.99,,,-99.99,,2013-05-11 13:11:00,
2013-05-11 06:21:00,58.0,39.0,30.77,West,270,0.0,0.0,50,-99.99,,,-99.99,,2013-05-11 13:21:00,
2013-05-11 06:31:00,58.0,39.0,30.77,West,270,0.0,0.0,50,-99.99,,,-99.99,,2013-05-11 13:31:00,
2013-05-11 06:41:00,57.0,39.0,30.77,West,270,0.0,0.0,51,-99.99,,,-99.99,,2013-05-11 13:41:00,
2013-05-11 06:52:00,57.0,39.0,30.77,West,270,0.0,0.0,51,-99.99,,,-99.99,,2013-05-11 13:52:00,
2013-05-11 07:01:00,58.0,40.0,30.76,West,270,0.0,0.0,52,-99.99,,,-99.99,,2013-05-11 14:01:00,
2013-05-11 07:11:00,58.0,40.0,30.76,West,270,0.0,0.0,52,-99.99,,,-99.99,,2013-05-11 14:11:00,
2013-05-11 07:21:00,57.0,40.0,30.77,West,270,0.0,0.0,53,-99.99,,,-99.99,,2013-05-11 14:21:00,
2013-05-11 07:32:00,57.0,40.0,30.78,West,270,0.0,0.0,53,-99.99,,,-99.99,,2013-05-11 14:32:00,
2013-05-11 07:41:00,57.0,40.0,30.78,West,270,0.0,0.0,53,-99.99,,,-99.99,,2013-05-11 14:41:00,
2013-05-11 07:52:00,57.0,40.0,30.78,West,270,0.0,0.0,53,-99.99,,,-99.99,,2013-05-11 14:52:00,
2013-05-11 08:01:00,57.0,41.0,30.78,West,270,0.0,0.0,54,-99.99,,,-99.99,,2013-05-11 15:01:00,
2013-05-11 08:11:00,57.0,40.0,30.78,West,270,0.0,0.0,52,-99.99,,,-99.99,,2013-05-11 15:11:00,
2013-05-11 08:21:00,57.0,40.0,30.78,West,270,0.0,0.0,52,-99.99,,,-99.99,,2013-05-11 15:21:00,
2013-05-11 08:32:00,58.0,40.0,30.78,West,270,0.0,0.0,51,-99.99,,,-99.99,,2013-05-11 15:32:00,
2013-05-11 08:42:00,59.0,40.0,30.78,West,270,0.0,0.0,49,-99.99,,,-99.99,,2013-05-11 15:42:00,
2013-05-11 08:53:00,59.0,40.0,30.78,West,270,0.0,0.0,49,-99.99,,,-99.99,,2013-05-11 15:53:00,
2013-05-11 09:02:00,60.0,41.0,30.78,West,270,0.0,0.0,49,-99.99,,,-99.99,,2013-05-11 16:02:00,
2013-05-11 09:12:00,60.0,41.0,30.78,West,270,0.0,0.0,49,-99.99,,,-99.99,,2013-05-11 16:12:00,
2013-05-11 09:22:00,60.0,41.0,30.78,West,270,0.0,0.0,49,-99.99,,,-99.99,,2013-05-11 16:22:00,
2013-05-11 09:32:00,61.0,41.0,30.77,West,270,0.0,0.0,48,-99.99,,,-99.99,,2013-05-11 16:32:00,
2013-05-11 09:42:00,63.0,42.0,30.77,West,270,0.0,0.0,46,-99.99,,,-99.99,,2013-05-11 16:42:00,
2013-05-11 09:52:00,63.0,42.0,30.77,West,270,0.0,0.0,46,-99.99,,,-99.99,,2013-05-11 16:52:00,
2013-05-11 10:02:00,65.0,43.0,30.77,West,270,0.0,0.0,45,-99.99,,,-99.99,,2013-05-11 17:02:00,
2013-05-11 10:22:00,65.0,43.0,30.77,West,270,0.0,0.0,45,-99.99,,,-99.99,,2013-05-11 17:22:00,
2013-05-11 10:31:00,68.0,44.0,30.76,West,270,0.0,0.0,42,-99.99,,,-99.99,,2013-05-11 17:31:00,
2013-05-11 10:41:00,69.0,44.0,30.77,West,270,0.0,0.0,41,-99.99,,,-99.99,,2013-05-11 17:41:00,
2013-05-11 11:31:00,72.0,44.0,30.76,West,270,0.0,0.0,36,-99.99,,,-99.99,,2013-05-11 18:31:00,
2013-05-11 11:42:00,72.0,43.0,30.76,West,270,0.0,0.0,35,-99.99,,,-99.99,,2013-05-11 18:42:00,
2013-05-11 12:11:00,72.0,43.0,30.76,West,270,0.0,0.0,35,-99.99,,,-99.99,,2013-05-11 19:11:00,
2013-05-11 12:31:00,77.0,47.0,30.76,West,270,0.0,0.0,35,-99.99,,,-99.99,,2013-05-11 19:31:00,
2013-05-11 12:42:00,79.0,49.0,30.75,West,270,0.0,0.0,35,-99.99,,,-99.99,,2013-05-11 19:42:00,
2013-05-11 13:01:00,80.0,50.0,30.75,West,270,0.0,0.0,35,-99.99,,,-99.99,,2013-05-11 20:01:00,
2013-05-11 14:01:00,83.0,51.0,30.73,West,270,0.0,0.0,33,-99.99,,,-99.99,,2013-05-11 21:01:00,
2013-05-11 14:33:00,83.0,50.0,30.74,West,270,0.0,0.0,32,-99.99,,,-99.99,,2013-05-11 21:33:00,
2013-05-11 14:52:00,85.0,52.0,30.73,West,270,0.0,0.0,32,-99.99,,,-99.99,,2013-05-11 21:52:00,
2013-05-11 15:32:00,83.0,50.0,30.72,West,270,0.0,0.0,32,-99.99,,,-99.99,,2013-05-11 22:32:00,
2013-05-11 16:02:00,84.0,51.0,30.71,West,270,0.0,0.0,32,-99.99,,,-99.99,,2013-05-11 23:02:00,
2013-05-11 16:21:00,84.0,50.0,30.70,West,270,0.0,0.0,31,-99.99,,,-99.99,,2013-05-11 23:21:00,
2013-05-11 16:31:00,84.0,51.0,30.70,West,270,0.0,0.0,32,-99.99,,,-99.99,,2013-05-11 23:31:00,
2013-05-11 16:42:00,84.0,49.0,30.69,West,270,0.0,0.0,30,-99.99,,,-99.99,,2013-05-11 23:42:00,
2013-05-11 16:52:00,84.0,49.0,30.69,West,270,0.0,0.0,30,-99.99,,,-99.99,,2013-05-11 23:52:00,
2013-05-11 17:01:00,84.0,49.0,30.69,West,270,0.0,0.0,30,-99.99,,,-99.99,,2013-05-12 00:01:00,
2013-05-11 17:11:00,84.0,49.0,30.69,West,270,0.0,0.0,30,-99.99,,,-99.99,,2013-05-12 00:11:00,
2013-05-11 17:21:00,83.0,49.0,30.69,West,270,0.0,0.0,31,-99.99,,,-99.99,,2013-05-12 00:21:00,
2013-05-11 17:32:00,83.0,49.0,30.69,West,270,0.0,0.0,31,-99.99,,,-99.99,,2013-05-12 00:32:00,
2013-05-11 17:42:00,81.0,50.0,30.68,West,270,0.0,0.0,34,-99.99,,,-99.99,,2013-05-12 00:42:00,
2013-05-11 17:52:00,81.0,50.0,30.68,West,270,0.0,0.0,34,-99.99,,,-99.99,,2013-05-12 00:52:00,
2013-05-11 18:01:00,81.0,49.0,30.68,West,270,0.0,0.0,33,-99.99,,,-99.99,,2013-05-12 01:01:00,
2013-05-11 18:11:00,81.0,49.0,30.68,West,270,0.0,0.0,33,-99.99,,,-99.99,,2013-05-12 01:11:00,
2013-05-11 18:21:00,82.0,49.0,30.68,West,270,0.0,0.0,32,-99.99,,,-99.99,,2013-05-12 01:21:00,
2013-05-11 18:31:00,82.0,49.0,30.68,West,270,0.0,0.0,32,-99.99,,,-99.99,,2013-05-12 01:31:00,
2013-05-11 18:41:00,81.0,50.0,30.66,West,270,0.0,0.0,34,-99.99,,,-99.99,,2013-05-12 01:41:00,
2013-05-11 18:52:00,81.0,50.0,30.66,West,270,0.0,0.0,34,-99.99,,,-99.99,,2013-05-12 01:52:00,
2013-05-11 19:01:00,80.0,50.0,30.66,West,270,0.0,0.0,35,-99.99,,,-99.99,,2013-05-12 02:01:00,
2013-05-11 19:11:00,80.0,50.0,30.66,West,270,0.0,0.0,35,-99.99,,,-99.99,,2013-05-12 02:11:00,
2013-05-11 19:21:00,78.0,49.0,30.66,West,270,0.0,0.0,36,-99.99,,,-99.99,,2013-05-12 02:21:00,
2013-05-11 19:31:00,77.0,49.0,30.66,West,270,0.0,0.0,37,-99.99,,,-99.99,,2013-05-12 02:31:00,
2013-05-11 19:41:00,76.0,50.0,30.65,West,270,0.0,0.0,40,-99.99,,,-99.99,,2013-05-12 02:41:00,
2013-05-11 19:52:00,76.0,50.0,30.65,West,270,0.0,0.0,40,-99.99,,,-99.99,,2013-05-12 02:52:00,
2013-05-11 20:01:00,75.0,49.0,30.66,West,270,0.0,0.0,40,-99.99,,,-99.99,,2013-05-12 03:01:00,
2013-05-11 20:11:00,73.0,49.0,30.66,West,270,0.0,0.0,43,-99.99,,,-99.99,,2013-05-12 03:11:00,
2013-05-11 20:21:00,73.0,49.0,30.66,West,270,0.0,0.0,43,-99.99,,,-99.99,,2013-05-12 03:21:00,
2013-05-11 20:32:00,72.0,48.0,30.65,West,270,0.0,0.0,43,-99.99,,,-99.99,,2013-05-12 03:32:00,
2013-05-11 20:42:00,72.0,48.0,30.65,West,270,0.0,0.0,43,-99.99,,,-99.99,,2013-05-12 03:42:00,
2013-05-11 20:53:00,71.0,49.0,30.65,West,270,0.0,0.0,45,-99.99,,,-99.99,,2013-05-12 03:53:00,
2013-05-11 21:02:00,-999.0,-99.9,30.65,West,270,0.0,0.0,47,-99.99,,,-99.99,,2013-05-12 04:02:00,
2013-05-11 21:12:00,70.0,49.0,30.65,West,270,0.0,0.0,47,-99.99,,,-99.99,,2013-05-12 04:12:00,
2013-05-11 21:22:00,70.0,52.0,30.66,West,270,0.0,0.0,52,-99.99,,,-99.99,,2013-05-12 04:22:00,
2013-05-11 21:32:00,70.0,52.0,30.67,West,270,0.0,0.0,53,-99.99,,,-99.99,,2013-05-12 04:32:00,
2013-05-11 21:42:00,69.0,52.0,30.68,West,270,0.0,0.0,55,-99.99,,,-99.99,,2013-05-12 04:42:00,
2013-05-11 21:52:00,69.0,52.0,30.68,West,270,0.0,0.0,55,-99.99,,,-99.99,,2013-05-12 04:52:00,
2013-05-11 22:02:00,69.0,53.0,30.68,West,270,0.0,0.0,57,-99.99,,,-99.99,,2013-05-12 05:02:00,
2013-05-11 22:11:00,69.0,53.0,30.68,West,270,0.0,0.0,57,-99.99,,,-99.99,,2013-05-12 05:11:00,
2013-05-11 22:21:00,68.0,52.0,30.68,West,270,0.0,0.0,57,-99.99,,,-99.99,,2013-05-12 05:21:00,
2013-05-11 22:31:00,68.0,51.0,30.68,West,270,0.0,0.0,55,-99.99,,,-99.99,,2013-05-12 05:31:00,
2013-05-11 22:42:00,68.0,51.0,30.68,West,270,0.0,0.0,55,-99.99,,,-99.99,,2013-05-12 05:42:00,
2013-05-11 22:51:00,66.0,50.0,30.68,West,270,0.0,0.0,56,-99.99,,,-99.99,,2013-05-12 05:51:00,
2013-05-11 23:01:00,66.0,50.0,30.68,West,270,0.0,0.0,57,-99.99,,,-99.99,,2013-05-12 06:01:00,
2013-05-11 23:11:00,65.0,50.0,30.68,West,270,0.0,0.0,59,-99.99,,,-99.99,,2013-05-12 06:11:00,
2013-05-11 23:21:00,65.0,50.0,30.68,West,270,0.0,0.0,59,-99.99,,,-99.99,,2013-05-12 06:21:00,
2013-05-11 23:31:00,65.0,50.0,30.67,West,270,0.0,0.0,59,-99.99,,,-99.99,,2013-05-12 06:31:00,
2013-05-11 23:41:00,66.0,52.0,30.67,West,270,0.0,0.0,61,-99.99,,,-99.99,,2013-05-12 06:41:00,
2013-05-11 23:52:00,66.0,52.0,30.67,West,270,0.0,0.0,61,-99.99,,,-99.99,,2013-05-12 06:52:00,